< < Back
Terminal Aerodrome Forecast


Current Version              Previous Versions:   1  2  3  4  5  6  7  8  9  

Terminal Aerodrome Forecast

988
FTAK31 PAJN 291800 AAA
TAFAHN
TAF AMD
PAHN 291812Z 2918/3018 13004KT P6SM -SHRA FEW003 SCT010 OVC025
     FM292100 12009KT P6SM -SHRA FEW005 SCT020 OVC050
     FM300600 10006KT 5SM -SHRA BR SCT005 BKN025 OVC050
     FM301600 10006KT P6SM VCSH FEW010 BKN025 OVC050
      AMD LTD TO CLD VIS AND WIND=

Latest METAR

919
SAUS70 KWBC 300300
MTRAHN
METAR KAHN 300251Z AUTO 33004KT 10SM CLR 22/14 A3000 RMK AO2 SLP153
T02220139 51011


USA.gov is the U.S. government's official web portal to all federal, state and local government web resources and services.